SVMG/PMV METAR and TAF weather

Enter ICAO airport designator
Station Type Date Time Source
SVMG METAR 2020/07/09 23:02 UTC NOAA

SVMG 092302Z AUTO 08015KT NCD 29/23 Q1012


Station Type Date Time Source
SVMG Decoded METAR 2020/07/09 23:02 UTC NOAA

Margarita / Del Carib, Venezuela (SVMG) 10-55N 063-59W
Jul 09, 2020 - 07:02 PM EDT / 2020.07.09 2302 UTC
Wind: from the E (080 degrees) at 17 MPH (15 KT):0
Temperature: 84 F (29 C)
Dew Point: 73 F (23 C)
Relative Humidity: 70%
Pressure (altimeter): 29.88 in. Hg (1012 hPa)
ob: SVMG 092302Z AUTO 08015KT NCD 29/23 Q1012
cycle: 23

Station Type Date Time Source
SVMG TAF 2020/07/09 18:15 UTC NOAA

TAF SVMG 091600Z 0918/1018 17005KT 9999 FEW010 TX30/19Z TN24/09Z
BECMG 0918/0922 09004KT 9999 SCT070

Example: see airport list